Time;durP1;ratioP1;P1;durP2;ratioP2;P2;SDS_P1;SDS_P2;PMS_P1;PMS_P2;Temp;Humidity;BMP_temperature;BMP_pressure;BME280_temperature;BME280_humidity;BME280_pressure;Samples;Min_cycle;Max_cycle;Signal;HPM_P1;HPM_P2
2023/09/29 00:01:48;;;;;;;16.48;10.80;;;20.20;99.90;;;;;;5022842;28;20626;-75
2023/09/29 00:04:14;;;;;;;17.23;8.73;;;20.20;99.90;;;;;;5017818;28;20252;-75
2023/09/29 00:06:40;;;;;;;14.30;9.90;;;20.10;99.90;;;;;;5019208;28;20168;-75
2023/09/29 00:09:11;;;;;;;14.38;9.18;;;20.10;99.90;;;;;;5022160;28;20681;-75
2023/09/29 00:11:37;;;;;;;14.10;9.45;;;20.10;99.90;;;;;;5019027;28;20205;-75
2023/09/29 00:14:03;;;;;;;15.60;9.65;;;20.00;99.90;;;;;;5021252;28;20587;-74
2023/09/29 00:16:29;;;;;;;15.80;8.90;;;20.20;99.90;;;;;;5019799;28;20858;-74
2023/09/29 00:18:55;;;;;;;13.52;9.05;;;20.20;99.90;;;;;;5021214;28;20223;-75
2023/09/29 00:21:21;;;;;;;14.60;9.90;;;20.20;99.90;;;;;;5020589;28;20176;-73
2023/09/29 00:23:47;;;;;;;14.55;9.48;;;20.10;99.90;;;;;;5020278;28;20266;-75
2023/09/29 00:26:13;;;;;;;13.65;9.27;;;20.10;99.90;;;;;;5021044;28;20204;-75
2023/09/29 00:28:38;;;;;;;15.55;8.77;;;20.00;99.90;;;;;;5019011;28;20263;-75
2023/09/29 00:31:06;;;;;;;12.60;8.82;;;20.00;99.90;;;;;;5019158;28;20212;-75
2023/09/29 00:33:32;;;;;;;12.82;9.90;;;20.00;99.90;;;;;;5018942;28;20752;-75
2023/09/29 00:35:59;;;;;;;14.43;9.80;;;20.00;99.90;;;;;;5022580;28;20176;-74
2023/09/29 00:38:25;;;;;;;14.70;9.93;;;20.00;99.90;;;;;;5018585;28;20651;-74
2023/09/29 00:40:51;;;;;;;20.05;11.20;;;19.90;99.90;;;;;;5020565;28;20236;-74
2023/09/29 00:43:17;;;;;;;13.60;9.63;;;19.90;99.90;;;;;;5017920;28;20263;-74
2023/09/29 00:45:44;;;;;;;14.05;10.85;;;19.90;99.90;;;;;;5018873;28;20209;-74
2023/09/29 00:48:13;;;;;;;14.70;10.38;;;19.90;99.90;;;;;;5022253;28;20184;-75
2023/09/29 00:50:39;;;;;;;13.93;10.40;;;19.90;99.90;;;;;;5018485;28;20818;-74
2023/09/29 00:53:09;;;;;;;15.23;10.32;;;19.90;99.90;;;;;;5021302;28;20334;-74
2023/09/29 00:55:36;;;;;;;13.55;10.25;;;19.80;99.90;;;;;;5017352;28;20213;-74
2023/09/29 00:58:02;;;;;;;16.20;11.30;;;19.80;99.90;;;;;;5022409;28;20614;-75
2023/09/29 01:00:32;;;;;;;14.02;10.45;;;19.80;99.90;;;;;;5019664;28;20221;-74
2023/09/29 01:03:09;;;;;;;16.50;10.05;;;19.70;99.90;;;;;;5025673;28;20200;-74
2023/09/29 01:05:36;;;;;;;13.55;10.32;;;19.70;99.90;;;;;;5005835;28;20283;-74
2023/09/29 01:08:09;;;;;;;16.88;11.13;;;19.80;99.90;;;;;;5026063;28;20204;-74
2023/09/29 01:10:36;;;;;;;17.58;9.80;;;19.80;99.90;;;;;;5020555;28;20237;-74
2023/09/29 01:13:02;;;;;;;21.55;11.02;;;19.70;99.90;;;;;;5025093;28;20250;-74
2023/09/29 01:15:28;;;;;;;13.95;10.65;;;19.70;99.90;;;;;;5022099;28;20177;-75
2023/09/29 01:17:54;;;;;;;14.80;10.02;;;19.60;99.90;;;;;;5026395;28;20250;-73
2023/09/29 01:20:30;;;;;;;16.17;10.50;;;19.50;99.90;;;;;;5019962;28;20943;-75
2023/09/29 01:22:57;;;;;;;20.17;10.85;;;19.50;99.90;;;;;;5015731;28;20288;-74
2023/09/29 01:25:23;;;;;;;14.48;10.20;;;19.40;99.90;;;;;;5025060;28;20232;-74
2023/09/29 01:27:50;;;;;;;14.82;9.13;;;19.20;99.90;;;;;;5021090;28;20699;-74
2023/09/29 01:30:18;;;;;;;15.57;10.63;;;19.20;99.90;;;;;;5021508;28;20184;-74
2023/09/29 01:32:50;;;;;;;14.32;11.32;;;19.20;99.90;;;;;;5020679;28;20224;-75
2023/09/29 01:35:27;;;;;;;15.10;10.43;;;19.20;99.90;;;;;;5018692;28;20234;-75
2023/09/29 01:37:54;;;;;;;13.80;9.63;;;19.20;99.90;;;;;;5023870;28;20205;-74
2023/09/29 01:40:23;;;;;;;13.52;9.90;;;19.20;99.90;;;;;;5022093;28;20299;-74
2023/09/29 01:42:50;;;;;;;16.30;10.25;;;19.20;99.90;;;;;;5021488;28;20283;-75
2023/09/29 01:45:17;;;;;;;14.30;9.38;;;19.20;99.90;;;;;;5024281;28;20176;-74
2023/09/29 01:47:45;;;;;;;14.13;9.95;;;19.10;99.90;;;;;;5022779;28;20304;-74
2023/09/29 01:50:12;;;;;;;18.00;9.80;;;19.10;99.90;;;;;;5023813;28;20258;-74
2023/09/29 01:52:38;;;;;;;15.15;9.75;;;19.10;99.90;;;;;;5022316;28;20714;-75
2023/09/29 01:55:07;;;;;;;14.38;9.45;;;19.00;99.90;;;;;;5024248;28;20254;-75
2023/09/29 01:57:33;;;;;;;15.32;8.95;;;19.00;99.90;;;;;;5021562;28;20181;-75
2023/09/29 01:59:59;;;;;;;12.38;9.07;;;19.00;99.90;;;;;;5018359;28;20197;-75
2023/09/29 02:02:24;;;;;;;12.68;8.88;;;19.10;99.90;;;;;;5024603;28;20254;-75
2023/09/29 02:04:52;;;;;;;14.68;8.38;;;19.10;99.90;;;;;;5020863;28;20212;-74
2023/09/29 02:07:18;;;;;;;15.55;8.90;;;19.10;99.90;;;;;;5018564;28;20759;-74
2023/09/29 02:09:44;;;;;;;15.05;9.35;;;19.10;99.90;;;;;;5017684;28;20584;-74
2023/09/29 02:12:10;;;;;;;12.52;8.48;;;19.00;99.90;;;;;;5013611;28;20200;-72
2023/09/29 02:14:35;;;;;;;10.98;8.10;;;19.10;99.90;;;;;;5021356;28;20212;-74
2023/09/29 02:17:02;;;;;;;13.65;8.30;;;19.00;99.90;;;;;;5023754;28;20213;-74
2023/09/29 02:19:27;;;;;;;11.73;8.50;;;19.00;99.90;;;;;;5021795;28;20702;-74
2023/09/29 02:21:53;;;;;;;13.98;9.02;;;19.00;99.90;;;;;;5022432;28;20217;-73
2023/09/29 02:24:19;;;;;;;12.55;8.48;;;18.90;99.90;;;;;;5022935;28;20177;-74
2023/09/29 02:26:45;;;;;;;11.55;8.30;;;18.90;99.90;;;;;;5020491;28;20209;-74
2023/09/29 02:29:11;;;;;;;12.57;8.23;;;18.90;99.90;;;;;;5023157;28;20590;-74
2023/09/29 02:31:36;;;;;;;13.45;8.35;;;18.90;99.90;;;;;;5019617;28;20259;-74
2023/09/29 02:34:03;;;;;;;11.05;7.40;;;18.90;99.90;;;;;;5020143;28;20209;-74
2023/09/29 02:36:29;;;;;;;11.70;8.45;;;19.00;99.90;;;;;;5024153;28;20173;-75
2023/09/29 02:38:55;;;;;;;10.25;7.32;;;18.90;99.90;;;;;;5019222;28;20660;-74
2023/09/29 02:41:21;;;;;;;11.52;6.95;;;18.90;99.90;;;;;;5021658;28;20216;-73
2023/09/29 02:43:47;;;;;;;10.82;7.28;;;18.80;99.90;;;;;;5020320;28;20232;-75
2023/09/29 02:46:14;;;;;;;16.50;7.35;;;18.80;99.90;;;;;;5023298;28;20698;-74
2023/09/29 02:48:41;;;;;;;9.88;6.95;;;18.80;99.90;;;;;;5021093;28;20179;-75
2023/09/29 02:51:19;;;;;;;10.38;7.07;;;18.70;99.90;;;;;;5023285;28;20173;-74
2023/09/29 02:53:48;;;;;;;13.10;7.03;;;18.70;99.90;;;;;;5016507;28;20224;-74
2023/09/29 02:56:16;;;;;;;11.02;7.90;;;18.60;99.90;;;;;;5018974;28;20219;-75
2023/09/29 02:58:43;;;;;;;13.55;7.35;;;18.70;99.90;;;;;;5017745;28;20208;-74
2023/09/29 03:01:12;;;;;;;13.05;7.63;;;18.70;99.90;;;;;;5018604;28;20714;-74
2023/09/29 03:03:44;;;;;;;11.68;7.43;;;18.80;99.90;;;;;;5015415;28;20721;-74
2023/09/29 03:06:20;;;;;;;10.30;8.18;;;18.80;99.90;;;;;;5020627;28;20651;-74
2023/09/29 03:08:49;;;;;;;11.20;7.35;;;18.80;99.90;;;;;;5019707;28;20220;-74
2023/09/29 03:11:16;;;;;;;11.32;7.63;;;18.70;99.90;;;;;;5017578;28;20292;-74
2023/09/29 03:13:41;;;;;;;12.55;7.75;;;18.70;99.90;;;;;;5021875;28;20730;-74
2023/09/29 03:16:07;;;;;;;12.20;7.35;;;18.60;99.90;;;;;;5019330;28;20213;-75
2023/09/29 03:18:37;;;;;;;11.68;7.57;;;18.60;99.90;;;;;;5022748;28;20254;-74
2023/09/29 03:21:09;;;;;;;10.02;7.97;;;18.60;99.90;;;;;;5017599;28;20196;-74
2023/09/29 03:23:36;;;;;;;9.88;7.90;;;18.60;99.90;;;;;;5020410;28;20709;-74
2023/09/29 03:26:05;;;;;;;10.63;7.40;;;18.50;99.90;;;;;;5020806;28;20201;-74
2023/09/29 03:28:34;;;;;;;14.85;8.32;;;18.60;99.90;;;;;;5021906;28;20204;-74
2023/09/29 03:31:02;;;;;;;14.98;8.75;;;18.60;99.90;;;;;;5020466;28;20208;-74
2023/09/29 03:33:29;;;;;;;12.00;7.88;;;18.50;99.90;;;;;;5021575;28;20192;-74
2023/09/29 03:35:55;;;;;;;9.88;8.18;;;18.40;99.90;;;;;;5020774;28;20178;-74
2023/09/29 03:38:21;;;;;;;13.63;9.27;;;18.40;99.90;;;;;;5020741;28;20588;-74
2023/09/29 03:40:50;;;;;;;15.95;9.18;;;18.40;99.90;;;;;;5017302;28;20212;-74
2023/09/29 03:43:16;;;;;;;12.07;8.65;;;18.30;99.90;;;;;;5020999;28;20599;-74
2023/09/29 03:45:42;;;;;;;11.70;8.75;;;18.30;99.90;;;;;;5018031;28;20621;-74
2023/09/29 03:48:08;;;;;;;14.30;9.23;;;18.20;99.90;;;;;;5019586;28;20170;-74
2023/09/29 03:50:35;;;;;;;12.65;9.40;;;18.20;99.90;;;;;;5018840;28;21072;-73
2023/09/29 03:53:01;;;;;;;12.70;9.88;;;18.10;99.90;;;;;;5018363;28;20255;-74
2023/09/29 03:55:27;;;;;;;14.32;10.50;;;18.10;99.90;;;;;;5021757;28;20455;-74
2023/09/29 03:57:53;;;;;;;14.23;9.40;;;18.10;99.90;;;;;;5019506;28;20580;-73
2023/09/29 04:00:19;;;;;;;14.60;10.02;;;18.10;99.90;;;;;;5021656;28;20203;-74
2023/09/29 04:02:45;;;;;;;17.83;9.98;;;18.00;99.90;;;;;;5018385;28;20568;-74
2023/09/29 04:05:11;;;;;;;14.43;9.40;;;18.00;99.90;;;;;;5020951;28;20229;-74
2023/09/29 04:07:40;;;;;;;13.50;9.38;;;18.00;99.90;;;;;;5020775;28;20252;-74
2023/09/29 04:10:08;;;;;;;15.20;9.52;;;18.10;99.90;;;;;;5015505;28;20232;-74
2023/09/29 04:12:35;;;;;;;13.48;9.50;;;18.20;99.90;;;;;;5017973;28;20279;-73
2023/09/29 04:15:00;;;;;;;13.10;9.55;;;18.10;99.90;;;;;;5020640;28;20177;-74
2023/09/29 04:17:26;;;;;;;11.15;8.98;;;18.20;99.90;;;;;;5021402;28;20258;-74
2023/09/29 04:19:51;;;;;;;13.63;9.13;;;18.00;99.90;;;;;;5019474;28;20216;-72
2023/09/29 04:22:17;;;;;;;13.60;9.27;;;18.10;99.90;;;;;;5020027;28;20208;-74
2023/09/29 04:24:42;;;;;;;14.93;9.38;;;18.10;99.90;;;;;;5017093;28;20541;-73
2023/09/29 04:27:08;;;;;;;15.30;8.88;;;18.00;99.90;;;;;;5017952;28;20570;-74
2023/09/29 04:29:35;;;;;;;12.85;8.80;;;17.90;99.90;;;;;;5014713;28;20207;-74
2023/09/29 04:32:00;;;;;;;14.57;9.02;;;18.00;99.90;;;;;;5018493;28;20279;-74
2023/09/29 04:34:26;;;;;;;11.77;8.30;;;17.90;99.90;;;;;;5020889;28;20240;-74
2023/09/29 04:36:53;;;;;;;12.50;9.20;;;17.90;99.90;;;;;;5019420;28;20220;-72
2023/09/29 04:39:19;;;;;;;11.07;7.82;;;17.90;99.90;;;;;;5017797;28;20600;-74
2023/09/29 04:41:44;;;;;;;13.80;8.52;;;17.90;99.90;;;;;;5019414;28;20317;-74
2023/09/29 04:44:10;;;;;;;10.45;7.40;;;17.80;99.90;;;;;;5020311;28;20536;-74
2023/09/29 04:46:36;;;;;;;10.85;7.72;;;17.70;99.90;;;;;;5020564;28;20233;-75
2023/09/29 04:49:03;;;;;;;11.82;7.60;;;17.70;99.90;;;;;;5019579;28;20657;-74
2023/09/29 04:51:32;;;;;;;11.30;7.35;;;17.70;99.90;;;;;;5020451;28;20168;-74
2023/09/29 04:53:57;;;;;;;12.00;7.78;;;17.70;99.90;;;;;;5018448;28;20199;-74
2023/09/29 04:56:23;;;;;;;10.20;7.22;;;17.80;99.90;;;;;;5021517;28;20742;-75
2023/09/29 04:58:48;;;;;;;9.60;7.15;;;17.70;99.90;;;;;;5017009;28;20212;-74
2023/09/29 05:01:18;;;;;;;10.60;7.32;;;17.80;99.90;;;;;;5017930;28;20221;-74
2023/09/29 05:03:44;;;;;;;12.50;7.40;;;17.80;99.90;;;;;;5013708;28;20207;-74
2023/09/29 05:06:10;;;;;;;10.30;7.32;;;17.70;99.90;;;;;;5018813;28;20656;-74
2023/09/29 05:08:36;;;;;;;10.40;7.40;;;17.80;99.90;;;;;;5020716;28;20220;-74
2023/09/29 05:11:02;;;;;;;12.73;7.82;;;17.90;99.90;;;;;;5016900;28;20254;-74
2023/09/29 05:13:32;;;;;;;11.23;7.25;;;18.00;99.90;;;;;;5019778;28;20215;-74
2023/09/29 05:16:01;;;;;;;15.05;8.20;;;17.90;99.90;;;;;;5017283;28;20212;-74
2023/09/29 05:18:27;;;;;;;12.48;7.05;;;18.00;99.90;;;;;;5021641;28;20259;-74
2023/09/29 05:20:52;;;;;;;10.70;6.85;;;18.10;99.90;;;;;;5018382;28;20758;-74
2023/09/29 05:23:18;;;;;;;10.40;7.40;;;18.00;99.90;;;;;;5021169;28;20216;-74
2023/09/29 05:25:47;;;;;;;12.55;6.78;;;18.10;99.90;;;;;;5019548;28;20200;-74
2023/09/29 05:28:13;;;;;;;9.63;6.85;;;17.90;99.90;;;;;;5016752;28;20201;-74
2023/09/29 05:30:42;;;;;;;12.00;8.00;;;18.00;99.90;;;;;;5018023;28;20177;-74
2023/09/29 05:33:08;;;;;;;11.70;6.88;;;18.10;99.90;;;;;;5019372;28;20197;-75
2023/09/29 05:35:34;;;;;;;9.80;6.93;;;18.30;99.90;;;;;;5019503;28;20266;-74
2023/09/29 05:38:00;;;;;;;11.07;6.82;;;18.20;99.90;;;;;;5018090;28;20213;-74
2023/09/29 05:40:25;;;;;;;9.07;6.47;;;18.10;99.90;;;;;;5017647;28;20262;-74
2023/09/29 05:42:51;;;;;;;8.77;6.10;;;18.20;99.90;;;;;;5018993;28;20263;-72
2023/09/29 05:45:17;;;;;;;10.88;7.07;;;18.40;99.90;;;;;;5021353;28;20616;-73
2023/09/29 05:47:42;;;;;;;10.77;6.38;;;18.50;99.90;;;;;;5025025;28;20204;-74
2023/09/29 05:50:08;;;;;;;9.23;6.85;;;18.70;99.90;;;;;;5020903;28;20639;-74
2023/09/29 05:52:35;;;;;;;7.72;6.18;;;18.90;99.90;;;;;;5018022;28;20211;-74
2023/09/29 05:55:01;;;;;;;9.68;6.15;;;18.90;99.90;;;;;;5021090;28;20236;-74
2023/09/29 05:57:26;;;;;;;12.65;7.57;;;19.00;99.90;;;;;;5021472;28;20173;-74
2023/09/29 05:59:54;;;;;;;8.63;5.88;;;20.50;99.90;;;;;;5021249;28;20205;-73
2023/09/29 06:02:20;;;;;;;7.53;5.82;;;21.50;99.90;;;;;;5022276;28;20270;-74
2023/09/29 06:04:46;;;;;;;6.95;5.18;;;22.60;99.90;;;;;;5022297;28;20200;-74
2023/09/29 06:07:11;;;;;;;6.93;4.95;;;23.50;99.90;;;;;;5021582;28;20592;-72
2023/09/29 06:09:37;;;;;;;9.65;5.53;;;24.60;99.90;;;;;;5022725;28;20180;-72
2023/09/29 06:12:03;;;;;;;7.00;4.57;;;25.90;99.90;;;;;;5022659;28;20281;-72
2023/09/29 06:14:31;;;;;;;7.63;5.18;;;26.50;99.90;;;;;;5020370;28;20205;-73
2023/09/29 06:16:58;;;;;;;7.22;4.50;;;26.60;99.90;;;;;;5022028;28;20212;-73
2023/09/29 06:19:24;;;;;;;7.65;5.47;;;25.50;99.90;;;;;;5021374;28;20300;-73
2023/09/29 06:21:49;;;;;;;6.15;4.93;;;24.70;99.90;;;;;;5023569;28;20219;-72
2023/09/29 06:24:15;;;;;;;8.65;5.47;;;24.30;99.90;;;;;;5021391;28;20173;-72
2023/09/29 06:26:41;;;;;;;10.57;5.05;;;24.20;99.90;;;;;;5022903;28;20627;-73
2023/09/29 06:29:06;;;;;;;6.03;4.60;;;24.70;99.90;;;;;;5018064;28;20209;-71
2023/09/29 06:31:32;;;;;;;5.43;4.85;;;25.50;99.90;;;;;;5022544;28;20204;-73
2023/09/29 06:33:58;;;;;;;5.88;5.28;;;26.10;99.90;;;;;;5019613;28;20220;-73
2023/09/29 06:36:23;;;;;;;6.70;5.07;;;25.80;99.90;;;;;;5023222;28;20675;-74
2023/09/29 06:38:49;;;;;;;5.85;5.10;;;25.40;99.90;;;;;;5021934;28;20196;-74
2023/09/29 06:41:15;;;;;;;7.43;5.47;;;24.70;99.90;;;;;;5019757;28;20699;-74
2023/09/29 06:43:43;;;;;;;7.63;5.38;;;24.70;99.90;;;;;;5021241;28;20236;-73
2023/09/29 06:46:08;;;;;;;8.73;4.97;;;25.10;99.90;;;;;;5018898;28;20223;-73
2023/09/29 06:48:34;;;;;;;6.38;4.95;;;25.10;99.90;;;;;;5021873;28;20263;-74
2023/09/29 06:50:59;;;;;;;7.40;5.20;;;25.30;99.90;;;;;;5020814;28;20652;-73
2023/09/29 06:53:27;;;;;;;9.20;5.72;;;26.00;99.90;;;;;;5017792;28;20213;-74
2023/09/29 06:55:53;;;;;;;7.40;4.82;;;26.60;99.90;;;;;;5020560;28;20204;-73
2023/09/29 06:58:19;;;;;;;11.20;5.15;;;26.80;99.90;;;;;;5016005;28;20702;-73
2023/09/29 07:00:45;;;;;;;8.73;4.60;;;26.90;99.90;;;;;;5021107;28;20281;-74
2023/09/29 07:03:12;;;;;;;6.53;4.78;;;27.40;99.90;;;;;;5019492;28;20291;-74
2023/09/29 07:05:38;;;;;;;7.38;4.95;;;27.70;99.90;;;;;;5021848;28;20215;-73
2023/09/29 07:08:04;;;;;;;5.32;4.47;;;28.00;99.90;;;;;;5018328;28;20213;-74
2023/09/29 07:10:30;;;;;;;5.72;4.38;;;28.10;99.90;;;;;;5021362;28;20223;-74
2023/09/29 07:12:56;;;;;;;6.18;5.07;;;27.60;99.90;;;;;;5020189;28;20223;-74
2023/09/29 07:15:22;;;;;;;6.90;4.72;;;26.60;99.90;;;;;;5020713;28;20260;-74
2023/09/29 07:17:48;;;;;;;8.77;5.13;;;26.90;99.90;;;;;;5019610;28;20291;-74
2023/09/29 07:20:13;;;;;;;7.53;4.68;;;27.30;99.90;;;;;;5018222;28;20213;-74
2023/09/29 07:22:39;;;;;;;5.78;4.57;;;26.90;99.90;;;;;;5021544;28;20220;-74
2023/09/29 07:25:05;;;;;;;8.75;4.53;;;26.60;99.90;;;;;;5019086;28;20224;-74
2023/09/29 07:27:31;;;;;;;9.00;4.43;;;26.60;99.90;;;;;;5017791;28;20173;-74
2023/09/29 07:29:57;;;;;;;5.38;4.28;;;26.30;99.90;;;;;;5019287;28;20264;-73
2023/09/29 07:32:25;;;;;;;6.28;4.60;;;26.10;99.90;;;;;;5019013;28;20263;-74
2023/09/29 07:34:50;;;;;;;8.57;4.22;;;26.50;99.90;;;;;;5014570;28;20702;-72
2023/09/29 07:37:16;;;;;;;9.90;4.72;;;26.80;99.90;;;;;;5018904;28;20220;-72
2023/09/29 07:39:41;;;;;;;7.57;4.60;;;27.30;99.90;;;;;;5021504;28;20207;-73
2023/09/29 07:42:07;;;;;;;4.35;3.78;;;27.50;99.90;;;;;;4979252;28;1185810;-72
2023/09/29 07:44:34;;;;;;;5.72;3.78;;;27.80;99.90;;;;;;5021906;28;20296;-72
2023/09/29 07:47:00;;;;;;;7.32;3.88;;;27.90;99.90;;;;;;5020789;28;20215;-73
2023/09/29 07:49:27;;;;;;;5.75;3.92;;;28.00;99.90;;;;;;5019514;28;20213;-73
2023/09/29 07:51:53;;;;;;;6.28;4.30;;;27.80;99.90;;;;;;5021400;28;20265;-72
2023/09/29 07:54:21;;;;;;;5.18;4.00;;;28.00;99.90;;;;;;5020741;28;20716;-73
2023/09/29 07:56:49;;;;;;;6.10;4.20;;;27.90;99.90;;;;;;5020171;28;20280;-73
2023/09/29 07:59:16;;;;;;;7.50;4.18;;;27.20;99.90;;;;;;5016057;28;20267;-72
2023/09/29 08:01:43;;;;;;;7.97;4.07;;;26.80;99.90;;;;;;5021374;28;20759;-72
2023/09/29 08:04:10;;;;;;;4.28;3.78;;;27.20;99.90;;;;;;5018309;28;20217;-73
2023/09/29 08:06:35;;;;;;;8.00;4.20;;;27.10;99.90;;;;;;5018389;28;20181;-73
2023/09/29 08:09:03;;;;;;;6.10;3.85;;;26.50;99.90;;;;;;5021402;28;20599;-73
2023/09/29 08:11:29;;;;;;;6.07;4.00;;;25.80;99.90;;;;;;5017754;28;20197;-73
2023/09/29 08:13:55;;;;;;;8.13;4.47;;;25.30;99.90;;;;;;5021070;28;20212;-73
2023/09/29 08:16:20;;;;;;;5.97;4.00;;;24.70;99.90;;;;;;5015984;28;20216;-74
2023/09/29 08:18:46;;;;;;;5.85;4.25;;;24.10;99.90;;;;;;5022047;28;20623;-74
2023/09/29 08:21:12;;;;;;;9.68;4.10;;;24.20;99.90;;;;;;5019538;28;20215;-75
2023/09/29 08:23:39;;;;;;;11.85;4.63;;;24.00;99.90;;;;;;5021235;28;20216;-75
2023/09/29 08:26:05;;;;;;;7.18;5.20;;;24.10;99.90;;;;;;5019437;28;20216;-73
2023/09/29 08:28:30;;;;;;;6.07;4.20;;;24.20;99.90;;;;;;5019494;28;20216;-75
2023/09/29 08:30:56;;;;;;;7.78;4.90;;;24.10;99.90;;;;;;5018665;28;20212;-74
2023/09/29 08:33:23;;;;;;;4.32;3.92;;;24.00;99.90;;;;;;5020231;28;20193;-75
2023/09/29 08:35:49;;;;;;;7.15;3.90;;;23.60;99.90;;;;;;5019470;28;20675;-74
2023/09/29 08:38:14;;;;;;;9.02;4.57;;;23.70;99.90;;;;;;5019577;28;20303;-74
2023/09/29 08:40:46;;;;;;;6.82;4.55;;;23.70;99.90;;;;;;5021234;28;20721;-73
2023/09/29 08:43:14;;;;;;;14.05;8.50;;;23.80;99.90;;;;;;5018235;28;20251;-72
2023/09/29 08:45:45;;;;;;;7.88;4.45;;;23.90;99.90;;;;;;5019075;28;20169;-74
2023/09/29 08:48:12;;;;;;;5.82;4.05;;;23.60;99.90;;;;;;5019932;28;20612;-74
2023/09/29 08:50:41;;;;;;;7.75;3.83;;;23.80;99.90;;;;;;5020484;28;20200;-74
2023/09/29 08:53:10;;;;;;;10.63;4.03;;;23.70;99.90;;;;;;5019479;28;20239;-74
2023/09/29 08:55:37;;;;;;;4.43;3.50;;;23.70;99.90;;;;;;5017663;28;20201;-74
2023/09/29 08:58:04;;;;;;;7.15;3.90;;;23.70;99.90;;;;;;5018059;28;20228;-75
2023/09/29 09:00:31;;;;;;;6.60;3.63;;;23.80;99.90;;;;;;5019136;28;20205;-75
2023/09/29 09:02:58;;;;;;;4.93;3.67;;;23.90;99.90;;;;;;5020176;28;20196;-74
2023/09/29 09:05:23;;;;;;;8.20;5.35;;;23.90;99.90;;;;;;5017687;28;20630;-74
2023/09/29 09:07:50;;;;;;;6.72;4.13;;;24.00;99.90;;;;;;5021863;28;20200;-71
2023/09/29 09:10:16;;;;;;;6.47;3.88;;;24.00;99.90;;;;;;5016608;28;20216;-74
2023/09/29 09:12:43;;;;;;;6.03;4.90;;;23.90;99.90;;;;;;5021806;28;20193;-74
2023/09/29 09:15:09;;;;;;;8.02;5.22;;;23.80;99.90;;;;;;5015285;28;20173;-74
2023/09/29 09:17:36;;;;;;;6.57;4.30;;;23.60;99.90;;;;;;5020759;28;20200;-75
2023/09/29 09:20:02;;;;;;;6.05;3.88;;;23.50;99.90;;;;;;5020178;28;20572;-75
2023/09/29 09:22:31;;;;;;;3.95;3.40;;;23.60;99.90;;;;;;5022434;28;20248;-74
2023/09/29 09:25:02;;;;;;;5.85;3.08;;;23.60;99.90;;;;;;5023825;28;20590;-74
2023/09/29 09:27:38;;;;;;;5.63;4.35;;;23.50;99.90;;;;;;5022299;28;20185;-74
2023/09/29 09:30:04;;;;;;;5.20;3.40;;;23.40;99.90;;;;;;5020279;28;20206;-74
2023/09/29 09:32:31;;;;;;;4.97;4.07;;;23.30;99.90;;;;;;5021809;28;20213;-74
2023/09/29 09:34:58;;;;;;;3.65;3.15;;;23.40;99.90;;;;;;5025370;28;20216;-74
2023/09/29 09:37:27;;;;;;;6.85;3.92;;;23.30;99.90;;;;;;5006774;28;20625;-75
2023/09/29 09:40:00;;;;;;;6.75;3.50;;;23.30;99.90;;;;;;5020043;28;20235;-74
2023/09/29 09:42:26;;;;;;;6.60;3.38;;;23.20;99.90;;;;;;5020217;28;20358;-75
2023/09/29 09:44:57;;;;;;;6.32;4.20;;;23.20;99.90;;;;;;5024078;28;20234;-71
2023/09/29 09:47:25;;;;;;;6.72;3.80;;;23.30;99.90;;;;;;5022338;28;20730;-72
2023/09/29 09:49:55;;;;;;;5.35;3.60;;;23.40;99.90;;;;;;5024498;28;20208;-75
2023/09/29 09:52:29;;;;;;;5.47;4.30;;;23.40;99.90;;;;;;5020578;28;20267;-74
2023/09/29 09:54:58;;;;;;;6.53;5.32;;;23.40;99.90;;;;;;5023383;28;20214;-74
2023/09/29 09:57:34;;;;;;;5.15;4.03;;;23.50;99.90;;;;;;5021111;28;20625;-74
2023/09/29 10:00:07;;;;;;;5.05;3.85;;;23.60;99.90;;;;;;5024368;28;20245;-74
2023/09/29 10:02:39;;;;;;;4.93;3.63;;;23.80;99.90;;;;;;5020983;28;20714;-74
2023/09/29 10:05:16;;;;;;;4.70;4.20;;;23.80;99.90;;;;;;5018402;28;20239;-74
2023/09/29 10:08:01;;;;;;;5.72;3.55;;;23.70;99.90;;;;;;5022788;28;20213;-75
2023/09/29 10:10:41;;;;;;;5.07;3.38;;;23.70;99.90;;;;;;5020960;28;20208;-74
2023/09/29 10:13:11;;;;;;;4.53;3.22;;;23.90;99.90;;;;;;5020430;28;20216;-74
2023/09/29 10:15:40;;;;;;;4.38;3.83;;;24.10;99.90;;;;;;5022062;28;20215;-74
2023/09/29 10:18:13;;;;;;;5.10;3.67;;;24.30;99.90;;;;;;5023849;28;20164;-74
2023/09/29 10:20:39;;;;;;;4.53;3.40;;;24.20;99.90;;;;;;5021153;28;20205;-74
2023/09/29 10:23:06;;;;;;;5.40;3.80;;;24.20;99.90;;;;;;5021420;28;20772;-75
2023/09/29 10:25:36;;;;;;;6.65;3.90;;;24.10;99.90;;;;;;5022217;28;20209;-74
2023/09/29 10:28:07;;;;;;;5.90;3.83;;;24.20;99.90;;;;;;5022692;28;20216;-74
2023/09/29 10:30:38;;;;;;;6.90;3.75;;;24.10;99.90;;;;;;5021457;28;20204;-75
2023/09/29 10:33:11;;;;;;;5.10;3.47;;;24.20;99.90;;;;;;5020881;28;20208;-75
2023/09/29 10:35:45;;;;;;;5.47;3.65;;;24.20;99.90;;;;;;5020700;28;20733;-74
2023/09/29 10:38:24;;;;;;;5.53;3.85;;;24.20;99.90;;;;;;5017628;28;20270;-73
2023/09/29 10:40:50;;;;;;;4.63;3.63;;;24.30;99.90;;;;;;5018437;28;20220;-72
2023/09/29 10:43:23;;;;;;;5.05;3.55;;;24.20;99.90;;;;;;5022825;28;20239;-72
2023/09/29 10:45:50;;;;;;;4.00;3.10;;;24.40;99.90;;;;;;5022223;28;20628;-72
2023/09/29 10:48:19;;;;;;;7.35;4.07;;;24.40;99.90;;;;;;5023005;28;20829;-72
2023/09/29 10:50:52;;;;;;;5.00;3.88;;;24.60;99.90;;;;;;5021521;28;20215;-72
2023/09/29 10:53:21;;;;;;;4.72;3.42;;;24.60;99.90;;;;;;5021329;28;20212;-72
2023/09/29 10:55:56;;;;;;;3.78;3.15;;;24.60;99.90;;;;;;5020207;28;20581;-72
2023/09/29 10:58:22;;;;;;;4.70;3.30;;;24.60;99.90;;;;;;5019094;28;20212;-72
2023/09/29 11:00:50;;;;;;;5.95;3.78;;;24.70;99.90;;;;;;5022507;28;20208;-74
2023/09/29 11:03:18;;;;;;;6.25;3.47;;;24.70;99.90;;;;;;5019639;28;20267;-73
2023/09/29 11:05:48;;;;;;;5.55;3.67;;;24.70;99.90;;;;;;5021625;28;20243;-74
2023/09/29 11:08:19;;;;;;;5.15;4.20;;;24.80;99.90;;;;;;5020584;28;20848;-74
2023/09/29 11:11:07;;;;;;;4.13;3.70;;;24.70;99.90;;;;;;5019825;28;20299;-72
2023/09/29 11:13:33;;;;;;;5.47;3.22;;;24.50;99.90;;;;;;5017150;28;20224;-72
2023/09/29 11:15:59;;;;;;;5.50;3.88;;;24.40;99.90;;;;;;5021679;28;20694;-71
2023/09/29 11:18:33;;;;;;;4.20;3.45;;;24.50;99.90;;;;;;5021483;28;20767;-72
2023/09/29 11:21:03;;;;;;;5.15;3.47;;;24.20;99.90;;;;;;5020939;28;20576;-72
2023/09/29 11:23:47;;;;;;;6.40;3.38;;;24.00;99.90;;;;;;5019081;28;20212;-72
2023/09/29 11:26:15;;;;;;;5.32;3.80;;;23.80;99.90;;;;;;5018434;28;20214;-72
2023/09/29 11:28:47;;;;;;;5.97;4.25;;;23.80;99.90;;;;;;5020437;28;20213;-72
2023/09/29 11:31:16;;;;;;;6.50;3.72;;;23.80;99.90;;;;;;5021701;28;20266;-74
2023/09/29 11:33:44;;;;;;;5.43;3.70;;;24.00;99.90;;;;;;5020796;28;20200;-72
2023/09/29 11:36:25;;;;;;;5.78;3.70;;;24.20;99.90;;;;;;5020667;28;20233;-73
2023/09/29 11:38:51;;;;;;;4.25;3.22;;;24.10;99.90;;;;;;5021498;28;20208;-73
2023/09/29 11:41:17;;;;;;;3.22;2.90;;;23.90;99.90;;;;;;5017851;28;20228;-75
2023/09/29 11:43:45;;;;;;;7.25;4.55;;;23.90;99.90;;;;;;5021357;28;20213;-74
2023/09/29 11:46:13;;;;;;;5.95;3.67;;;24.00;99.90;;;;;;5020148;28;20295;-74
2023/09/29 11:48:40;;;;;;;4.68;3.45;;;23.70;99.90;;;;;;5019187;28;20187;-73
2023/09/29 11:51:08;;;;;;;5.95;3.30;;;23.60;99.90;;;;;;5020260;28;20173;-74
2023/09/29 11:53:34;;;;;;;3.97;3.20;;;23.70;99.90;;;;;;5020339;28;20212;-73
2023/09/29 11:55:59;;;;;;;5.45;3.28;;;23.70;99.90;;;;;;5019677;28;20205;-72
2023/09/29 11:58:25;;;;;;;7.18;4.20;;;23.80;99.90;;;;;;5019944;28;20250;-72
2023/09/29 12:00:52;;;;;;;5.20;3.80;;;24.00;99.90;;;;;;5020224;28;20212;-72
2023/09/29 12:03:21;;;;;;;4.60;3.80;;;24.10;99.90;;;;;;5020762;28;20611;-74
2023/09/29 12:05:49;;;;;;;5.00;3.83;;;24.10;99.90;;;;;;5018516;28;20209;-74
2023/09/29 12:08:16;;;;;;;6.28;4.40;;;24.20;99.90;;;;;;5020537;28;20307;-74
2023/09/29 12:10:42;;;;;;;5.20;3.70;;;24.10;99.90;;;;;;5018113;28;20213;-74
2023/09/29 12:13:08;;;;;;;6.50;3.97;;;24.10;99.90;;;;;;5021853;28;20662;-74
2023/09/29 12:15:34;;;;;;;5.57;3.95;;;24.10;99.90;;;;;;5018859;28;20255;-74
2023/09/29 12:18:00;;;;;;;9.55;3.65;;;24.10;99.90;;;;;;5021625;28;20276;-74
2023/09/29 12:20:27;;;;;;;5.70;3.47;;;24.20;99.90;;;;;;5018558;28;20243;-73
2023/09/29 12:22:55;;;;;;;5.07;3.55;;;24.20;99.90;;;;;;5022171;28;20259;-73
2023/09/29 12:25:21;;;;;;;6.32;3.38;;;24.10;99.90;;;;;;5018186;28;20208;-74
2023/09/29 12:27:48;;;;;;;8.88;3.28;;;24.00;99.90;;;;;;5016651;28;20215;-73
2023/09/29 12:30:14;;;;;;;5.35;3.45;;;24.00;99.90;;;;;;5019455;28;20196;-74
2023/09/29 12:32:41;;;;;;;3.90;3.50;;;24.00;99.90;;;;;;5018892;28;20228;-74
2023/09/29 12:35:09;;;;;;;5.38;3.30;;;24.00;99.90;;;;;;5021261;28;20688;-74
2023/09/29 12:37:35;;;;;;;4.72;3.42;;;23.80;99.90;;;;;;5018190;28;20219;-74
2023/09/29 12:40:01;;;;;;;4.03;3.22;;;23.70;99.90;;;;;;5021211;28;20576;-74
2023/09/29 12:42:26;;;;;;;6.38;4.50;;;23.60;99.90;;;;;;5020040;28;20212;-74